Green Grove, Wisconsin
Current Conditions -  °F | °C
As of 12:35 PM on Saturday 25 Oct 2014 (Local Time) from KMDZ Reporting Station
Clear Clear  
Wind Chill: 57°   Ceiling: Unl
Heat Index: 57°   Visibility: 10mi
Dew Point: 30°   Wind: 16mph
Humidity: 37%   Direction: 300°WNW
Pressure: 29.92"   Gusts: 23mph
Location:  44.9782°N, 90.5368°W
Report Text: KMDZ 251735Z AUTO 30014G20KT 10SM CLR 14/M01 A2992 RMK AO2 T01371009
Loading
Personal Weather Stations






























Interactive Weather Map
Tropical Storm Tracking
New forecast layout! Learn more

10-Day Weather Forecast

Advertisements
Track Severe Weather on mobile